sensor_id;sensor_type;location;lat;lon;timestamp;pressure;altitude;pressure_sealevel;temperature;humidity
33191;BME280;19554;42.652;23.364;2023-04-27T00:02:06;94306.53;;;9.35;46.89
33191;BME280;19554;42.652;23.364;2023-04-27T00:04:32;94312.00;;;9.24;47.07
33191;BME280;19554;42.652;23.364;2023-04-27T00:06:57;94243.47;;;8.68;47.43
33191;BME280;19554;42.652;23.364;2023-04-27T00:09:22;94322.56;;;9.11;47.51
33191;BME280;19554;42.652;23.364;2023-04-27T00:11:48;94325.03;;;9.02;47.70
33191;BME280;19554;42.652;23.364;2023-04-27T00:14:13;94321.69;;;9.15;47.73
33191;BME280;19554;42.652;23.364;2023-04-27T00:16:38;94316.66;;;9.14;47.30
33191;BME280;19554;42.652;23.364;2023-04-27T00:19:04;94218.06;;;8.57;47.36
33191;BME280;19554;42.652;23.364;2023-04-27T00:21:29;94325.47;;;9.09;47.34
33191;BME280;19554;42.652;23.364;2023-04-27T00:23:55;94335.69;;;9.02;47.27
33191;BME280;19554;42.652;23.364;2023-04-27T00:26:21;94329.41;;;8.93;47.64
33191;BME280;19554;42.652;23.364;2023-04-27T00:28:47;94330.44;;;8.97;47.64
33191;BME280;19554;42.652;23.364;2023-04-27T00:31:12;94329.34;;;8.98;47.49
33191;BME280;19554;42.652;23.364;2023-04-27T00:33:37;94329.34;;;8.98;47.52
33191;BME280;19554;42.652;23.364;2023-04-27T00:36:03;94327.75;;;8.97;47.20
33191;BME280;19554;42.652;23.364;2023-04-27T00:38:29;94328.84;;;8.96;47.10
33191;BME280;19554;42.652;23.364;2023-04-27T00:41:05;94335.69;;;9.02;47.24
33191;BME280;19554;42.652;23.364;2023-04-27T00:43:31;94334.09;;;9.01;47.10
33191;BME280;19554;42.652;23.364;2023-04-27T00:45:58;94308.72;;;8.85;47.14
33191;BME280;19554;42.652;23.364;2023-04-27T00:48:24;94316.66;;;8.90;47.20
33191;BME280;19554;42.652;23.364;2023-04-27T00:50:50;94258.13;;;8.42;47.19
33191;BME280;19554;42.652;23.364;2023-04-27T00:53:16;94335.78;;;8.92;47.20
33191;BME280;19554;42.652;23.364;2023-04-27T00:55:42;94331.03;;;8.89;47.20
33191;BME280;19554;42.652;23.364;2023-04-27T00:58:07;94289.06;;;8.62;47.20
33191;BME280;19554;42.652;23.364;2023-04-27T01:00:34;94342.03;;;8.82;47.31
33191;BME280;19554;42.652;23.364;2023-04-27T01:03:00;94354.59;;;8.76;47.55
33191;BME280;19554;42.652;23.364;2023-04-27T01:05:26;94349.84;;;8.73;47.71
33191;BME280;19554;42.652;23.364;2023-04-27T01:07:51;94326.53;;;8.65;47.45
33191;BME280;19554;42.652;23.364;2023-04-27T01:10:16;94352.91;;;8.86;47.50
33191;BME280;19554;42.652;23.364;2023-04-27T01:12:42;94349.72;;;8.84;47.46
33191;BME280;19554;42.652;23.364;2023-04-27T01:15:09;94356.97;;;8.78;47.71
33191;BME280;19554;42.652;23.364;2023-04-27T01:17:34;94350.06;;;8.77;47.65
33191;BME280;19554;42.652;23.364;2023-04-27T01:20:01;94354.03;;;8.80;47.58
33191;BME280;19554;42.652;23.364;2023-04-27T01:22:26;94300.03;;;8.55;47.41
33191;BME280;19554;42.652;23.364;2023-04-27T01:24:52;94355.97;;;8.98;47.50
33191;BME280;19554;42.652;23.364;2023-04-27T01:27:18;94329.63;;;8.72;47.36
33191;BME280;19554;42.652;23.364;2023-04-27T01:29:43;94356.59;;;8.90;47.25
33191;BME280;19554;42.652;23.364;2023-04-27T01:32:08;94328.09;;;8.66;47.29
33191;BME280;19554;42.652;23.364;2023-04-27T01:34:34;94360.47;;;8.73;47.42
33191;BME280;19554;42.652;23.364;2023-04-27T01:36:59;94358.16;;;8.67;47.71
33191;BME280;19554;42.652;23.364;2023-04-27T01:39:25;94329.94;;;8.37;47.99
33191;BME280;19554;42.652;23.364;2023-04-27T01:41:50;94335.25;;;8.37;47.65
33191;BME280;19554;42.652;23.364;2023-04-27T01:44:15;94362.25;;;8.54;47.66
33191;BME280;19554;42.652;23.364;2023-04-27T01:46:41;94332.19;;;8.24;47.98
33191;BME280;19554;42.652;23.364;2023-04-27T01:49:06;94330.25;;;8.30;48.01
33191;BME280;19554;42.652;23.364;2023-04-27T01:51:32;94326.31;;;8.27;47.95
33191;BME280;19554;42.652;23.364;2023-04-27T01:53:57;94342.75;;;8.35;48.09
33191;BME280;19554;42.652;23.364;2023-04-27T01:56:23;94346.94;;;8.41;47.92
33191;BME280;19554;42.652;23.364;2023-04-27T01:58:48;94368.03;;;8.61;47.27
33191;BME280;19554;42.652;23.364;2023-04-27T02:01:14;94359.88;;;8.52;47.57
33191;BME280;19554;42.652;23.364;2023-04-27T02:03:39;94276.03;;;8.02;47.44
33191;BME280;19554;42.652;23.364;2023-04-27T02:06:06;94320.41;;;8.30;47.15
33191;BME280;19554;42.652;23.364;2023-04-27T02:08:31;94364.81;;;8.64;47.41
33191;BME280;19554;42.652;23.364;2023-04-27T02:10:56;94330.50;;;8.34;47.10
33191;BME280;19554;42.652;23.364;2023-04-27T02:13:22;94372.34;;;8.57;47.63
33191;BME280;19554;42.652;23.364;2023-04-27T02:15:47;94372.34;;;8.57;47.26
33191;BME280;19554;42.652;23.364;2023-04-27T02:18:13;94366.06;;;8.48;47.51
33191;BME280;19554;42.652;23.364;2023-04-27T02:20:39;94361.34;;;8.35;47.34
33191;BME280;19554;42.652;23.364;2023-04-27T02:23:05;94374.13;;;8.38;47.81
33191;BME280;19554;42.652;23.364;2023-04-27T02:25:31;94368.22;;;8.41;47.54
33191;BME280;19554;42.652;23.364;2023-04-27T02:27:56;94362.41;;;8.34;47.46
33191;BME280;19554;42.652;23.364;2023-04-27T02:30:21;94368.19;;;8.46;47.77
33191;BME280;19554;42.652;23.364;2023-04-27T02:32:47;94351.22;;;8.37;47.23
33191;BME280;19554;42.652;23.364;2023-04-27T02:35:12;94351.78;;;8.34;47.12
33191;BME280;19554;42.652;23.364;2023-04-27T02:37:37;94339.13;;;8.20;47.25
33191;BME280;19554;42.652;23.364;2023-04-27T02:40:03;94371.94;;;8.45;47.62
33191;BME280;19554;42.652;23.364;2023-04-27T02:42:31;94366.66;;;8.40;47.11
33191;BME280;19554;42.652;23.364;2023-04-27T02:44:57;94364.66;;;8.21;47.21
33191;BME280;19554;42.652;23.364;2023-04-27T02:47:22;94376.31;;;8.25;47.67
33191;BME280;19554;42.652;23.364;2023-04-27T02:49:47;94356.22;;;8.09;47.50
33191;BME280;19554;42.652;23.364;2023-04-27T02:52:13;94365.00;;;8.10;47.90
33191;BME280;19554;42.652;23.364;2023-04-27T02:54:38;94378.44;;;8.23;47.49
33191;BME280;19554;42.652;23.364;2023-04-27T02:57:04;94356.69;;;8.21;47.59
33191;BME280;19554;42.652;23.364;2023-04-27T02:59:29;94377.38;;;8.24;47.54
33191;BME280;19554;42.652;23.364;2023-04-27T03:01:55;94377.34;;;8.29;47.26
33191;BME280;19554;42.652;23.364;2023-04-27T03:04:20;94379.16;;;8.34;47.03
33191;BME280;19554;42.652;23.364;2023-04-27T03:06:45;94376.78;;;8.32;46.92
33191;BME280;19554;42.652;23.364;2023-04-27T03:09:11;94386.72;;;8.22;47.45
33191;BME280;19554;42.652;23.364;2023-04-27T03:11:39;94388.28;;;8.23;47.22
33191;BME280;19554;42.652;23.364;2023-04-27T03:14:04;94365.78;;;8.10;47.12
33191;BME280;19554;42.652;23.364;2023-04-27T03:16:31;94397.09;;;8.18;47.25
33191;BME280;19554;42.652;23.364;2023-04-27T03:18:56;94382.31;;;8.02;47.46
33191;BME280;19554;42.652;23.364;2023-04-27T03:21:22;94399.78;;;8.13;47.42
33191;BME280;19554;42.652;23.364;2023-04-27T03:23:47;94394.28;;;7.99;47.32
33191;BME280;19554;42.652;23.364;2023-04-27T03:26:13;94399.69;;;7.89;47.48
33191;BME280;19554;42.652;23.364;2023-04-27T03:28:38;94401.84;;;7.87;47.67
33191;BME280;19554;42.652;23.364;2023-04-27T03:31:09;94407.75;;;7.74;47.67
33191;BME280;19554;42.652;23.364;2023-04-27T03:33:35;94408.00;;;7.77;47.76
33191;BME280;19554;42.652;23.364;2023-04-27T03:36:01;94417.03;;;7.76;48.09
33191;BME280;19554;42.652;23.364;2023-04-27T03:38:27;94393.72;;;7.63;47.64
33191;BME280;19554;42.652;23.364;2023-04-27T03:40:53;94413.38;;;7.67;47.94
33191;BME280;19554;42.652;23.364;2023-04-27T03:43:19;94413.38;;;7.67;48.15
33191;BME280;19554;42.652;23.364;2023-04-27T03:45:45;94419.72;;;7.71;47.96
33191;BME280;19554;42.652;23.364;2023-04-27T03:48:10;94403.03;;;7.55;48.13
33191;BME280;19554;42.652;23.364;2023-04-27T03:50:36;94412.81;;;7.70;48.12
33191;BME280;19554;42.652;23.364;2023-04-27T03:53:01;94427.13;;;7.79;48.22
33191;BME280;19554;42.652;23.364;2023-04-27T03:55:27;94431.91;;;7.72;47.97
33191;BME280;19554;42.652;23.364;2023-04-27T03:57:52;94355.09;;;7.31;48.11
33191;BME280;19554;42.652;23.364;2023-04-27T04:00:18;94427.13;;;7.79;47.67
33191;BME280;19554;42.652;23.364;2023-04-27T04:02:44;94435.66;;;7.71;47.61
33191;BME280;19554;42.652;23.364;2023-04-27T04:05:10;94437.22;;;7.72;48.02
33191;BME280;19554;42.652;23.364;2023-04-27T04:07:36;94446.22;;;7.81;47.88
33191;BME280;19554;42.652;23.364;2023-04-27T04:10:02;94451.03;;;7.74;47.69
33191;BME280;19554;42.652;23.364;2023-04-27T04:12:27;94451.03;;;7.74;48.10
33191;BME280;19554;42.652;23.364;2023-04-27T04:14:53;94342.50;;;7.08;47.81
33191;BME280;19554;42.652;23.364;2023-04-27T04:17:18;94374.22;;;7.33;47.67
33191;BME280;19554;42.652;23.364;2023-04-27T04:19:44;94443.06;;;7.79;47.39
33191;BME280;19554;42.652;23.364;2023-04-27T04:22:09;94439.94;;;7.67;47.95
33191;BME280;19554;42.652;23.364;2023-04-27T04:24:34;94468.63;;;7.65;47.36
33191;BME280;19554;42.652;23.364;2023-04-27T04:27:00;94456.94;;;7.61;47.61
33191;BME280;19554;42.652;23.364;2023-04-27T04:29:26;94463.88;;;7.52;48.01
33191;BME280;19554;42.652;23.364;2023-04-27T04:31:54;94476.06;;;7.63;47.74
33191;BME280;19554;42.652;23.364;2023-04-27T04:34:20;94439.63;;;7.69;47.53
33191;BME280;19554;42.652;23.364;2023-04-27T04:36:46;94469.56;;;7.90;47.52
33191;BME280;19554;42.652;23.364;2023-04-27T04:39:11;94417.69;;;7.53;46.66
33191;BME280;19554;42.652;23.364;2023-04-27T04:41:37;94475.94;;;7.94;46.88
33191;BME280;19554;42.652;23.364;2023-04-27T04:44:03;94482.78;;;8.05;46.80
33191;BME280;19554;42.652;23.364;2023-04-27T04:46:29;94488.09;;;8.05;46.57
33191;BME280;19554;42.652;23.364;2023-04-27T04:48:55;94483.81;;;8.09;46.71
33191;BME280;19554;42.652;23.364;2023-04-27T04:51:20;94475.41;;;8.41;46.61
33191;BME280;19554;42.652;23.364;2023-04-27T04:53:45;94485.09;;;8.61;45.68
33191;BME280;19554;42.652;23.364;2023-04-27T04:56:12;94489.16;;;8.88;45.72
33191;BME280;19554;42.652;23.364;2023-04-27T04:58:38;94494.75;;;9.15;44.56
33191;BME280;19554;42.652;23.364;2023-04-27T05:01:04;94489.88;;;9.22;44.38
33191;BME280;19554;42.652;23.364;2023-04-27T05:03:30;94490.72;;;9.47;43.59
33191;BME280;19554;42.652;23.364;2023-04-27T05:05:55;94483.53;;;9.47;43.47
33191;BME280;19554;42.652;23.364;2023-04-27T05:08:21;94498.19;;;9.93;42.60
33191;BME280;19554;42.652;23.364;2023-04-27T05:10:53;94502.25;;;10.09;42.32
33191;BME280;19554;42.652;23.364;2023-04-27T05:13:19;94508.06;;;10.54;41.31
33191;BME280;19554;42.652;23.364;2023-04-27T05:15:45;94502.00;;;10.67;41.34
33191;BME280;19554;42.652;23.364;2023-04-27T05:18:10;94507.34;;;10.67;41.29
33191;BME280;19554;42.652;23.364;2023-04-27T05:20:37;94508.22;;;10.44;41.16
33191;BME280;19554;42.652;23.364;2023-04-27T05:23:02;94493.06;;;10.39;41.16
33191;BME280;19554;42.652;23.364;2023-04-27T05:25:31;94518.81;;;10.06;41.33
33191;BME280;19554;42.652;23.364;2023-04-27T05:27:57;94496.28;;;9.75;41.65
33191;BME280;19554;42.652;23.364;2023-04-27T05:30:22;94524.63;;;9.89;42.13
33191;BME280;19554;42.652;23.364;2023-04-27T05:32:48;94525.41;;;9.90;42.15
33191;BME280;19554;42.652;23.364;2023-04-27T05:35:13;94521.88;;;9.70;42.35
33191;BME280;19554;42.652;23.364;2023-04-27T05:37:38;94522.00;;;9.60;43.10
33191;BME280;19554;42.652;23.364;2023-04-27T05:40:05;94517.81;;;9.54;44.08
33191;BME280;19554;42.652;23.364;2023-04-27T05:42:33;94523.28;;;9.68;43.67
33191;BME280;19554;42.652;23.364;2023-04-27T05:44:58;94461.13;;;9.24;42.55
33191;BME280;19554;42.652;23.364;2023-04-27T05:47:23;94522.75;;;9.42;43.12
33191;BME280;19554;42.652;23.364;2023-04-27T05:49:50;94521.66;;;9.43;42.91
33191;BME280;19554;42.652;23.364;2023-04-27T05:52:17;94471.38;;;8.83;43.77
33191;BME280;19554;42.652;23.364;2023-04-27T05:54:48;94485.41;;;8.89;43.89
33191;BME280;19554;42.652;23.364;2023-04-27T05:57:14;94534.66;;;9.20;44.06
33191;BME280;19554;42.652;23.364;2023-04-27T05:59:40;94533.03;;;9.24;44.94
33191;BME280;19554;42.652;23.364;2023-04-27T06:02:06;94534.28;;;9.03;44.36
33191;BME280;19554;42.652;23.364;2023-04-27T06:04:32;94524.97;;;9.00;44.88
33191;BME280;19554;42.652;23.364;2023-04-27T06:06:58;94530.00;;;9.07;45.04
33191;BME280;19554;42.652;23.364;2023-04-27T06:09:23;94436.25;;;8.52;44.33
33191;BME280;19554;42.652;23.364;2023-04-27T06:11:49;94540.56;;;9.17;45.73
33191;BME280;19554;42.652;23.364;2023-04-27T06:14:14;94543.25;;;9.12;45.15
33191;BME280;19554;42.652;23.364;2023-04-27T06:16:40;94525.56;;;9.27;44.71
33191;BME280;19554;42.652;23.364;2023-04-27T06:19:06;94537.34;;;9.15;45.12
33191;BME280;19554;42.652;23.364;2023-04-27T06:21:34;94477.00;;;8.76;44.94
33191;BME280;19554;42.652;23.364;2023-04-27T06:24:00;94441.94;;;8.69;45.63
33191;BME280;19554;42.652;23.364;2023-04-27T06:26:26;94532.31;;;9.43;44.77
33191;BME280;19554;42.652;23.364;2023-04-27T06:28:53;94528.59;;;9.44;45.03
33191;BME280;19554;42.652;23.364;2023-04-27T06:31:18;94484.22;;;9.29;44.65
33191;BME280;19554;42.652;23.364;2023-04-27T06:33:44;94519.19;;;9.52;44.66
33191;BME280;19554;42.652;23.364;2023-04-27T06:36:09;94528.38;;;9.64;44.60
33191;BME280;19554;42.652;23.364;2023-04-27T06:38:35;94530.41;;;9.72;44.52
33191;BME280;19554;42.652;23.364;2023-04-27T06:41:00;94535.19;;;9.76;44.75
33191;BME280;19554;42.652;23.364;2023-04-27T06:43:27;94522.19;;;9.93;44.16
33191;BME280;19554;42.652;23.364;2023-04-27T06:45:52;94521.97;;;10.08;43.82
33191;BME280;19554;42.652;23.364;2023-04-27T06:48:17;94528.78;;;10.19;43.83
33191;BME280;19554;42.652;23.364;2023-04-27T06:50:43;94529.13;;;10.37;42.65
33191;BME280;19554;42.652;23.364;2023-04-27T06:53:08;94522.06;;;10.46;43.31
33191;BME280;19554;42.652;23.364;2023-04-27T06:55:34;94532.13;;;10.49;42.86
33191;BME280;19554;42.652;23.364;2023-04-27T06:58:01;94525.09;;;10.58;42.16
33191;BME280;19554;42.652;23.364;2023-04-27T07:00:27;94509.22;;;10.48;42.07
33191;BME280;19554;42.652;23.364;2023-04-27T07:02:53;94516.88;;;10.74;42.96
33191;BME280;19554;42.652;23.364;2023-04-27T07:05:18;94521.66;;;10.90;41.84
33191;BME280;19554;42.652;23.364;2023-04-27T07:07:44;94514.81;;;11.17;40.98
33191;BME280;19554;42.652;23.364;2023-04-27T07:10:09;94521.19;;;11.35;41.17
33191;BME280;19554;42.652;23.364;2023-04-27T07:12:36;94518.56;;;11.62;40.65
33191;BME280;19554;42.652;23.364;2023-04-27T07:15:02;94488.06;;;11.77;40.88
33191;BME280;19554;42.652;23.364;2023-04-27T07:17:28;94510.94;;;12.25;39.66
33191;BME280;19554;42.652;23.364;2023-04-27T07:19:54;94502.31;;;12.28;38.40
33191;BME280;19554;42.652;23.364;2023-04-27T07:22:20;94504.13;;;12.19;39.27
33191;BME280;19554;42.652;23.364;2023-04-27T07:24:45;94526.78;;;12.35;39.10
33191;BME280;19554;42.652;23.364;2023-04-27T07:27:11;94504.47;;;12.76;38.29
33191;BME280;19554;42.652;23.364;2023-04-27T07:29:37;94425.66;;;12.46;37.27
33191;BME280;19554;42.652;23.364;2023-04-27T07:32:07;94506.31;;;12.89;37.21
33191;BME280;19554;42.652;23.364;2023-04-27T07:34:32;94484.75;;;12.72;37.21
33191;BME280;19554;42.652;23.364;2023-04-27T07:36:59;94506.66;;;12.74;37.36
33191;BME280;19554;42.652;23.364;2023-04-27T07:39:24;94487.09;;;12.51;37.87
33191;BME280;19554;42.652;23.364;2023-04-27T07:41:50;94503.88;;;12.79;37.68
33191;BME280;19554;42.652;23.364;2023-04-27T07:44:16;94500.63;;;12.91;37.23
33191;BME280;19554;42.652;23.364;2023-04-27T07:46:43;94502.53;;;12.54;36.73
33191;BME280;19554;42.652;23.364;2023-04-27T07:49:08;94481.44;;;12.02;36.77
33191;BME280;19554;42.652;23.364;2023-04-27T07:51:33;94497.69;;;11.92;36.78
33191;BME280;19554;42.652;23.364;2023-04-27T07:53:59;94505.25;;;11.90;37.31
33191;BME280;19554;42.652;23.364;2023-04-27T07:56:26;94507.78;;;11.68;37.44
33191;BME280;19554;42.652;23.364;2023-04-27T07:58:51;94510.75;;;11.66;37.71
33191;BME280;19554;42.652;23.364;2023-04-27T08:01:17;94424.78;;;11.18;37.25
33191;BME280;19554;42.652;23.364;2023-04-27T08:03:42;94512.53;;;11.71;37.33
33191;BME280;19554;42.652;23.364;2023-04-27T08:06:07;94502.22;;;11.78;37.63
33191;BME280;19554;42.652;23.364;2023-04-27T08:08:33;94495.03;;;11.92;37.19
33191;BME280;19554;42.652;23.364;2023-04-27T08:10:58;94501.22;;;12.29;37.12
33191;BME280;19554;42.652;23.364;2023-04-27T08:13:23;94503.56;;;12.44;36.34
33191;BME280;19554;42.652;23.364;2023-04-27T08:15:49;94502.81;;;12.66;36.04
33191;BME280;19554;42.652;23.364;2023-04-27T08:18:15;94504.78;;;12.97;35.02
33191;BME280;19554;42.652;23.364;2023-04-27T08:20:42;94501.25;;;12.88;34.88
33191;BME280;19554;42.652;23.364;2023-04-27T08:23:07;94495.28;;;12.91;35.28
33191;BME280;19554;42.652;23.364;2023-04-27T08:25:35;94495.88;;;12.88;35.28
33191;BME280;19554;42.652;23.364;2023-04-27T08:28:00;94490.22;;;12.67;35.49
33191;BME280;19554;42.652;23.364;2023-04-27T08:30:26;94496.00;;;12.60;35.73
33191;BME280;19554;42.652;23.364;2023-04-27T08:32:51;94494.81;;;12.52;36.12
33191;BME280;19554;42.652;23.364;2023-04-27T08:35:18;94495.88;;;12.29;35.78
33191;BME280;19554;42.652;23.364;2023-04-27T08:37:44;94501.66;;;12.08;36.57
33191;BME280;19554;42.652;23.364;2023-04-27T08:40:10;94497.88;;;12.09;37.47
33191;BME280;19554;42.652;23.364;2023-04-27T08:42:35;94500.25;;;12.25;37.72
33191;BME280;19554;42.652;23.364;2023-04-27T08:45:01;94497.81;;;12.37;37.77
33191;BME280;19554;42.652;23.364;2023-04-27T08:47:26;94505.03;;;12.50;36.96
33191;BME280;19554;42.652;23.364;2023-04-27T08:49:52;94463.19;;;12.18;36.99
33191;BME280;19554;42.652;23.364;2023-04-27T08:52:17;94496.41;;;12.53;36.60
33191;BME280;19554;42.652;23.364;2023-04-27T08:54:43;94507.25;;;12.71;36.67
33191;BME280;19554;42.652;23.364;2023-04-27T08:57:12;94488.59;;;12.43;36.76
33191;BME280;19554;42.652;23.364;2023-04-27T08:59:41;94405.00;;;11.88;36.98
33191;BME280;19554;42.652;23.364;2023-04-27T09:02:20;94497.38;;;12.57;36.57
33191;BME280;19554;42.652;23.364;2023-04-27T09:04:45;94451.66;;;12.31;36.80
33191;BME280;19554;42.652;23.364;2023-04-27T09:07:15;94501.53;;;12.64;36.75
33191;BME280;19554;42.652;23.364;2023-04-27T09:09:41;94487.28;;;12.54;37.03
33191;BME280;19554;42.652;23.364;2023-04-27T09:12:16;94497.00;;;12.50;36.29
33191;BME280;19554;42.652;23.364;2023-04-27T09:14:43;94490.38;;;12.48;36.93
33191;BME280;19554;42.652;23.364;2023-04-27T09:17:26;94494.78;;;12.66;36.68
33191;BME280;19554;42.652;23.364;2023-04-27T09:20:03;94494.38;;;12.73;36.60
33191;BME280;19554;42.652;23.364;2023-04-27T09:22:41;94489.13;;;12.90;35.53
33191;BME280;19554;42.652;23.364;2023-04-27T09:25:07;94478.78;;;12.97;35.88
33191;BME280;19554;42.652;23.364;2023-04-27T09:27:32;94473.78;;;13.04;35.71
33191;BME280;19554;42.652;23.364;2023-04-27T09:29:58;94396.56;;;12.75;34.94
33191;BME280;19554;42.652;23.364;2023-04-27T09:32:23;94481.66;;;13.55;35.32
33191;BME280;19554;42.652;23.364;2023-04-27T09:34:48;94408.25;;;13.11;35.10
33191;BME280;19554;42.652;23.364;2023-04-27T09:37:14;94482.72;;;13.54;35.02
33191;BME280;19554;42.652;23.364;2023-04-27T09:39:41;94480.97;;;13.40;34.96
33191;BME280;19554;42.652;23.364;2023-04-27T09:42:06;94471.31;;;13.39;34.71
33191;BME280;19554;42.652;23.364;2023-04-27T09:44:33;94462.03;;;13.14;35.38
33191;BME280;19554;42.652;23.364;2023-04-27T09:46:59;94455.34;;;13.03;35.29
33191;BME280;19554;42.652;23.364;2023-04-27T09:49:26;94464.63;;;13.05;35.32
33191;BME280;19554;42.652;23.364;2023-04-27T09:51:55;94447.03;;;12.82;35.46
33191;BME280;19554;42.652;23.364;2023-04-27T09:54:26;94463.06;;;13.04;35.60
33191;BME280;19554;42.652;23.364;2023-04-27T10:00:05;94449.81;;;13.62;34.59
33191;BME280;19554;42.652;23.364;2023-04-27T10:02:44;94453.13;;;13.67;34.30
33191;BME280;19554;42.652;23.364;2023-04-27T10:08:04;94454.06;;;13.63;34.20
33191;BME280;19554;42.652;23.364;2023-04-27T10:10:41;94449.38;;;13.77;33.95
33191;BME280;19554;42.652;23.364;2023-04-27T10:13:06;94446.28;;;13.92;33.67
33191;BME280;19554;42.652;23.364;2023-04-27T10:15:38;94436.47;;;13.88;33.06
33191;BME280;19554;42.652;23.364;2023-04-27T10:18:04;94457.16;;;13.87;33.51
33191;BME280;19554;42.652;23.364;2023-04-27T10:20:36;94405.78;;;13.54;34.34
33191;BME280;19554;42.652;23.364;2023-04-27T10:23:01;94454.00;;;13.85;33.88
33191;BME280;19554;42.652;23.364;2023-04-27T10:25:29;94448.63;;;13.85;33.69
33191;BME280;19554;42.652;23.364;2023-04-27T10:28:02;94445.91;;;13.77;33.43
33191;BME280;19554;42.652;23.364;2023-04-27T10:30:33;94454.34;;;13.92;33.60
33191;BME280;19554;42.652;23.364;2023-04-27T10:33:04;94448.81;;;13.97;33.02
33191;BME280;19554;42.652;23.364;2023-04-27T10:35:36;94452.75;;;13.91;32.99
33191;BME280;19554;42.652;23.364;2023-04-27T10:38:06;94450.50;;;13.76;33.18
33191;BME280;19554;42.652;23.364;2023-04-27T10:40:33;94452.00;;;13.60;32.69
33191;BME280;19554;42.652;23.364;2023-04-27T10:43:13;94449.19;;;13.65;32.80
33191;BME280;19554;42.652;23.364;2023-04-27T10:45:40;94445.56;;;13.69;32.74
33191;BME280;19554;42.652;23.364;2023-04-27T10:48:06;94443.84;;;13.65;32.78
33191;BME280;19554;42.652;23.364;2023-04-27T10:50:32;94401.84;;;13.51;32.46
33191;BME280;19554;42.652;23.364;2023-04-27T10:53:03;94416.06;;;13.61;32.82
33191;BME280;19554;42.652;23.364;2023-04-27T10:55:29;94410.41;;;13.71;32.38
33191;BME280;19554;42.652;23.364;2023-04-27T10:57:56;94447.47;;;13.69;32.84
33191;BME280;19554;42.652;23.364;2023-04-27T11:00:25;94448.69;;;13.54;32.94
33191;BME280;19554;42.652;23.364;2023-04-27T11:02:52;94444.38;;;13.44;32.77
33191;BME280;19554;42.652;23.364;2023-04-27T11:05:20;94441.38;;;13.46;32.83
33191;BME280;19554;42.652;23.364;2023-04-27T11:07:46;94438.31;;;13.61;32.75
33191;BME280;19554;42.652;23.364;2023-04-27T11:10:17;94428.25;;;13.36;32.84
33191;BME280;19554;42.652;23.364;2023-04-27T11:12:42;94437.25;;;13.40;32.92
33191;BME280;19554;42.652;23.364;2023-04-27T11:15:08;94438.19;;;13.13;32.63
33191;BME280;19554;42.652;23.364;2023-04-27T11:17:34;94438.19;;;13.13;32.26
33191;BME280;19554;42.652;23.364;2023-04-27T11:19:59;94431.63;;;13.19;32.69
33191;BME280;19554;42.652;23.364;2023-04-27T11:22:25;94431.38;;;13.29;32.26
33191;BME280;19554;42.652;23.364;2023-04-27T11:24:51;94443.25;;;13.37;32.16
33191;BME280;19554;42.652;23.364;2023-04-27T11:27:17;94415.91;;;13.26;32.61
33191;BME280;19554;42.652;23.364;2023-04-27T11:29:43;94441.47;;;13.32;32.40
33191;BME280;19554;42.652;23.364;2023-04-27T11:32:19;94370.22;;;12.69;33.34
33191;BME280;19554;42.652;23.364;2023-04-27T11:34:48;94449.28;;;13.20;33.28
33191;BME280;19554;42.652;23.364;2023-04-27T11:37:20;94354.75;;;12.43;33.91
33191;BME280;19554;42.652;23.364;2023-04-27T11:39:47;94451.41;;;13.09;33.95
33191;BME280;19554;42.652;23.364;2023-04-27T11:42:23;94441.38;;;13.15;33.75
33191;BME280;19554;42.652;23.364;2023-04-27T11:45:03;94413.00;;;13.14;33.89
33191;BME280;19554;42.652;23.364;2023-04-27T11:47:33;94451.31;;;13.45;33.17
33191;BME280;19554;42.652;23.364;2023-04-27T11:50:02;94454.66;;;13.51;33.19
33191;BME280;19554;42.652;23.364;2023-04-27T11:52:32;94462.13;;;13.63;33.19
33191;BME280;19554;42.652;23.364;2023-04-27T11:54:59;94455.81;;;13.59;32.85
33191;BME280;19554;42.652;23.364;2023-04-27T11:57:26;94462.75;;;13.28;32.94
33191;BME280;19554;42.652;23.364;2023-04-27T11:59:53;94458.06;;;13.12;33.42
33191;BME280;19554;42.652;23.364;2023-04-27T12:02:22;94469.91;;;13.19;33.44
33191;BME280;19554;42.652;23.364;2023-04-27T12:04:50;94460.41;;;13.27;33.14
33191;BME280;19554;42.652;23.364;2023-04-27T12:07:16;94456.34;;;13.38;33.58
33191;BME280;19554;42.652;23.364;2023-04-27T12:09:42;94462.47;;;13.30;32.67
33191;BME280;19554;42.652;23.364;2023-04-27T12:12:08;94393.91;;;12.84;32.94
33191;BME280;19554;42.652;23.364;2023-04-27T12:14:33;94420.97;;;13.05;33.11
33191;BME280;19554;42.652;23.364;2023-04-27T12:16:59;94465.66;;;13.41;33.16
33191;BME280;19554;42.652;23.364;2023-04-27T12:19:24;94465.22;;;13.47;33.37
33191;BME280;19554;42.652;23.364;2023-04-27T12:21:53;94474.78;;;13.40;33.07
33191;BME280;19554;42.652;23.364;2023-04-27T12:24:19;94396.50;;;12.89;33.51
33191;BME280;19554;42.652;23.364;2023-04-27T12:26:44;94450.94;;;13.07;33.19
33191;BME280;19554;42.652;23.364;2023-04-27T12:29:11;94470.72;;;13.20;33.39
33191;BME280;19554;42.652;23.364;2023-04-27T12:31:37;94467.56;;;13.18;33.32
33191;BME280;19554;42.652;23.364;2023-04-27T12:34:02;94461.81;;;13.33;33.86
33191;BME280;19554;42.652;23.364;2023-04-27T12:36:27;94444.78;;;13.29;33.75
33191;BME280;19554;42.652;23.364;2023-04-27T12:38:57;94458.88;;;13.43;32.91
33191;BME280;19554;42.652;23.364;2023-04-27T12:41:23;94454.00;;;13.45;33.33
33191;BME280;19554;42.652;23.364;2023-04-27T12:43:49;94391.47;;;12.96;32.79
33191;BME280;19554;42.652;23.364;2023-04-27T12:46:14;94471.53;;;13.51;32.95
33191;BME280;19554;42.652;23.364;2023-04-27T12:48:40;94481.47;;;13.51;33.10
33191;BME280;19554;42.652;23.364;2023-04-27T12:51:05;94453.94;;;13.28;32.99
33191;BME280;19554;42.652;23.364;2023-04-27T12:53:31;94472.91;;;13.40;33.37
33191;BME280;19554;42.652;23.364;2023-04-27T12:55:58;94469.88;;;13.33;33.20
33191;BME280;19554;42.652;23.364;2023-04-27T12:58:26;94475.69;;;13.26;33.21